createdAt,value
2019-02-17T00:01:53.868Z,4.10
2019-02-17T00:04:21.952Z,4.10
2019-02-17T00:06:49.968Z,4.80
2019-02-17T00:09:17.707Z,4.40
2019-02-17T00:11:45.408Z,4.50
2019-02-17T00:14:13.118Z,4.50
2019-02-17T00:16:40.968Z,4.40
2019-02-17T00:19:08.777Z,4.60
2019-02-17T00:21:36.627Z,4.70
2019-02-17T00:24:04.411Z,4.70
2019-02-17T00:26:40.651Z,4.80
2019-02-17T00:29:08.560Z,5.00
2019-02-17T00:31:36.224Z,5.00
2019-02-17T00:34:03.951Z,5.20
2019-02-17T00:36:31.668Z,5.30
2019-02-17T00:38:59.399Z,5.30
2019-02-17T00:41:27.140Z,5.30
2019-02-17T00:43:54.887Z,5.30
2019-02-17T00:46:22.692Z,5.30
2019-02-17T00:48:50.429Z,5.30
2019-02-17T00:51:18.155Z,5.40
2019-02-17T00:53:45.860Z,5.40
2019-02-17T00:56:13.704Z,5.40
2019-02-17T00:58:43.593Z,5.40
2019-02-17T01:01:11.320Z,5.40
2019-02-17T01:03:39.089Z,5.40
2019-02-17T01:06:06.825Z,5.40
2019-02-17T01:08:36.314Z,5.20
2019-02-17T01:11:04.026Z,5.20
2019-02-17T01:13:31.762Z,5.10
2019-02-17T01:15:59.500Z,5.10
2019-02-17T01:18:27.273Z,5.10
2019-02-17T01:20:54.974Z,5.10
2019-02-17T01:23:22.743Z,5.10
2019-02-17T01:25:50.533Z,5.20
2019-02-17T01:28:18.260Z,5.20
2019-02-17T01:30:46.018Z,5.10
2019-02-17T01:33:15.683Z,5.20
2019-02-17T01:35:43.473Z,5.30
2019-02-17T01:38:11.165Z,5.30
2019-02-17T01:40:38.959Z,5.30
2019-02-17T01:43:06.681Z,5.30
2019-02-17T01:45:34.409Z,5.30
2019-02-17T01:48:02.161Z,5.30
2019-02-17T01:50:29.887Z,5.10
2019-02-17T01:52:57.611Z,5.20
2019-02-17T01:55:25.416Z,5.10
2019-02-17T01:57:53.111Z,5.00
2019-02-17T02:00:20.935Z,5.00
2019-02-17T02:02:48.687Z,5.00
2019-02-17T02:05:16.766Z,5.00
2019-02-17T02:07:44.545Z,4.50
2019-02-17T02:10:12.418Z,5.00
2019-02-17T02:12:40.124Z,5.00
2019-02-17T02:15:08.271Z,5.00
2019-02-17T02:17:36.065Z,5.00
2019-02-17T02:20:04.900Z,5.10
2019-02-17T02:22:32.831Z,5.10
2019-02-17T02:25:00.524Z,5.10
2019-02-17T02:27:28.219Z,5.10
2019-02-17T02:29:55.926Z,5.10
2019-02-17T02:32:23.633Z,5.00
2019-02-17T02:34:51.374Z,5.00
2019-02-17T02:37:19.129Z,5.00
2019-02-17T02:39:46.970Z,4.90
2019-02-17T02:42:14.754Z,4.90
2019-02-17T02:44:42.471Z,4.80
2019-02-17T02:47:10.162Z,4.80
2019-02-17T02:49:37.889Z,4.70
2019-02-17T02:52:05.785Z,4.60
2019-02-17T02:54:33.535Z,4.60
2019-02-17T02:57:01.245Z,4.60
2019-02-17T02:59:29.034Z,4.70
2019-02-17T03:01:56.728Z,4.70
2019-02-17T03:04:24.495Z,4.70
2019-02-17T03:06:55.296Z,4.60
2019-02-17T03:09:23.062Z,4.50
2019-02-17T03:11:50.825Z,4.50
2019-02-17T03:14:18.889Z,4.50
2019-02-17T03:16:46.801Z,4.50
2019-02-17T03:21:42.142Z,4.20
2019-02-17T03:24:09.849Z,4.10
2019-02-17T03:26:37.581Z,4.10
2019-02-17T03:29:05.288Z,4.00
2019-02-17T03:31:33.120Z,3.90
2019-02-17T03:36:28.522Z,3.90
2019-02-17T03:38:56.367Z,3.90
2019-02-17T03:46:19.417Z,3.90
2019-02-17T03:48:47.129Z,4.10
2019-02-17T03:51:14.947Z,4.10
2019-02-17T03:53:42.629Z,4.20
2019-02-17T03:56:10.343Z,4.30
2019-02-17T03:58:38.036Z,4.30
2019-02-17T04:01:05.772Z,4.30
2019-02-17T04:03:33.474Z,4.20
2019-02-17T04:06:01.227Z,4.20
2019-02-17T04:08:28.973Z,4.20
2019-02-17T04:10:56.719Z,4.20
2019-02-17T04:15:52.074Z,4.00
2019-02-17T04:18:19.811Z,4.00
2019-02-17T04:20:47.572Z,3.90
2019-02-17T04:25:42.891Z,3.80
2019-02-17T04:28:10.668Z,3.70
2019-02-17T04:30:38.364Z,3.60
2019-02-17T04:33:06.067Z,3.60
2019-02-17T04:35:33.810Z,3.50
2019-02-17T04:38:01.538Z,3.50
2019-02-17T04:40:30.859Z,3.50
2019-02-17T04:42:58.624Z,3.50
2019-02-17T04:50:21.674Z,3.40
2019-02-17T04:52:49.327Z,3.30
2019-02-17T04:55:17.026Z,3.30
2019-02-17T05:00:12.454Z,3.30
2019-02-17T05:02:40.158Z,3.30
2019-02-17T05:05:07.875Z,3.30
2019-02-17T05:07:35.580Z,3.30
2019-02-17T05:12:31.289Z,3.20
2019-02-17T05:14:59.016Z,3.20
2019-02-17T05:17:26.806Z,3.20
2019-02-17T05:19:54.564Z,3.20
2019-02-17T05:22:22.275Z,3.20
2019-02-17T05:24:51.824Z,3.30
2019-02-17T05:27:19.494Z,3.30
2019-02-17T05:29:47.257Z,3.40
2019-02-17T05:32:14.946Z,3.40
2019-02-17T05:34:42.642Z,3.50
2019-02-17T05:37:10.490Z,3.60
2019-02-17T05:39:38.148Z,3.70
2019-02-17T05:42:05.857Z,3.70
2019-02-17T05:44:33.548Z,3.80
2019-02-17T05:47:01.242Z,3.80
2019-02-17T05:49:28.966Z,3.80
2019-02-17T05:51:56.775Z,3.90
2019-02-17T05:54:24.511Z,3.90
2019-02-17T05:56:52.170Z,3.90
2019-02-17T05:59:19.872Z,4.00
2019-02-17T06:04:15.222Z,4.20
2019-02-17T06:06:56.559Z,4.30
2019-02-17T06:09:24.262Z,4.30
2019-02-17T06:11:51.922Z,4.40
2019-02-17T06:14:19.608Z,4.50
2019-02-17T06:16:47.346Z,4.40
2019-02-17T06:19:17.613Z,4.50
2019-02-17T06:21:44.725Z,4.60
2019-02-17T06:24:12.456Z,4.70
2019-02-17T06:26:40.202Z,4.70
2019-02-17T06:29:07.980Z,4.70
2019-02-17T06:31:35.730Z,4.70
2019-02-17T06:34:03.532Z,4.60
2019-02-17T06:36:31.254Z,4.60
2019-02-17T06:38:59.061Z,4.60
2019-02-17T06:43:54.399Z,4.70
2019-02-17T06:46:26.230Z,4.70
2019-02-17T06:48:56.394Z,4.70
2019-02-17T06:51:24.125Z,4.70
2019-02-17T06:53:52.868Z,4.80
2019-02-17T06:56:45.860Z,4.80
2019-02-17T06:59:13.598Z,4.80
2019-02-17T07:01:41.432Z,4.80
2019-02-17T07:04:09.172Z,4.80
2019-02-17T07:06:40.529Z,4.90
2019-02-17T07:09:08.170Z,4.90
2019-02-17T07:11:35.971Z,5.00
2019-02-17T07:14:04.085Z,5.10
2019-02-17T07:16:31.832Z,5.10
2019-02-17T07:23:54.891Z,5.20
2019-02-17T07:26:22.629Z,5.20
2019-02-17T07:28:50.277Z,5.30
2019-02-17T07:31:17.985Z,5.30
2019-02-17T07:33:45.658Z,5.30
2019-02-17T07:36:13.429Z,5.40
2019-02-17T07:41:08.776Z,5.60
2019-02-17T07:43:36.453Z,5.70
2019-02-17T07:46:04.249Z,5.70
2019-02-17T07:48:31.964Z,5.80
2019-02-17T07:50:59.744Z,5.90
2019-02-17T07:53:27.524Z,6.00
2019-02-17T07:58:22.951Z,6.20
2019-02-17T08:00:50.745Z,6.30
2019-02-17T08:03:18.410Z,6.40
2019-02-17T08:05:46.246Z,6.60
2019-02-17T08:08:13.993Z,6.70
2019-02-17T08:13:09.386Z,7.00
2019-02-17T08:15:37.135Z,7.20
2019-02-17T08:18:04.935Z,7.40
2019-02-17T08:20:32.611Z,7.60
2019-02-17T08:23:00.598Z,7.60
2019-02-17T08:25:28.360Z,8.20
2019-02-17T08:27:56.098Z,8.20
2019-02-17T08:30:23.853Z,8.40
2019-02-17T08:32:52.713Z,8.50
2019-02-17T08:35:20.361Z,8.60
2019-02-17T08:37:48.206Z,8.80
2019-02-17T08:40:16.023Z,8.90
2019-02-17T08:42:43.787Z,9.10
2019-02-17T08:45:11.474Z,9.10
2019-02-17T08:47:39.262Z,9.20
2019-02-17T08:50:08.393Z,9.20
2019-02-17T08:52:36.201Z,9.30
2019-02-17T08:55:04.435Z,9.40
2019-02-17T08:57:32.196Z,9.40
2019-02-17T08:59:59.938Z,9.70
2019-02-17T09:02:27.745Z,10.00
2019-02-17T09:04:55.463Z,10.10
2019-02-17T09:07:23.231Z,10.20
2019-02-17T09:09:51.017Z,10.30
2019-02-17T09:12:18.795Z,10.30
2019-02-17T09:14:46.795Z,10.50
2019-02-17T09:17:14.541Z,10.50
2019-02-17T09:19:42.266Z,10.70
2019-02-17T09:22:12.202Z,10.90
2019-02-17T09:24:39.967Z,11.20
2019-02-17T09:27:07.785Z,11.30
2019-02-17T09:29:35.584Z,11.40
2019-02-17T09:32:03.341Z,11.50
2019-02-17T09:34:31.111Z,11.60
2019-02-17T09:36:59.184Z,11.60
2019-02-17T09:39:26.946Z,11.80
2019-02-17T09:41:54.636Z,11.70
2019-02-17T09:44:22.388Z,11.90
2019-02-17T09:46:50.132Z,12.20
2019-02-17T09:49:17.888Z,12.50
2019-02-17T09:51:45.575Z,12.80
2019-02-17T09:54:13.424Z,12.90
2019-02-17T09:56:41.261Z,13.10
2019-02-17T09:59:09.056Z,13.50
2019-02-17T10:01:36.780Z,13.60
2019-02-17T10:04:04.594Z,13.80
2019-02-17T10:06:32.347Z,14.10
2019-02-17T10:09:00.135Z,14.00
2019-02-17T10:11:28.904Z,14.20
2019-02-17T10:13:56.618Z,14.20
2019-02-17T10:16:24.338Z,14.50
2019-02-17T10:18:53.368Z,14.40
2019-02-17T10:21:21.806Z,14.30
2019-02-17T10:23:49.597Z,14.10
2019-02-17T10:26:18.004Z,13.90
2019-02-17T10:28:46.053Z,14.10
2019-02-17T10:31:13.796Z,13.90
2019-02-17T10:33:41.583Z,14.00
2019-02-17T10:36:09.315Z,14.60
2019-02-17T10:38:37.111Z,14.80
2019-02-17T10:41:05.899Z,15.00
2019-02-17T10:43:34.131Z,15.20
2019-02-17T10:46:01.826Z,15.20
2019-02-17T10:48:29.697Z,15.50
2019-02-17T10:50:57.419Z,15.80
2019-02-17T10:53:25.087Z,15.80
2019-02-17T10:55:52.809Z,15.90
2019-02-17T10:58:21.530Z,16.20
2019-02-17T11:00:49.290Z,16.30
2019-02-17T11:03:23.388Z,16.40
2019-02-17T11:05:51.143Z,16.10
2019-02-17T11:08:18.927Z,16.20
2019-02-17T11:10:46.626Z,16.40
2019-02-17T11:15:41.985Z,17.30
2019-02-17T11:20:39.356Z,16.80
2019-02-17T11:23:07.062Z,16.80
2019-02-17T11:25:35.279Z,17.30
2019-02-17T11:28:05.043Z,17.30
2019-02-17T11:30:32.839Z,17.50
2019-02-17T11:33:01.966Z,17.30
2019-02-17T11:35:30.024Z,17.00
2019-02-17T11:37:58.136Z,16.90
2019-02-17T11:40:25.909Z,16.80
2019-02-17T11:42:53.578Z,16.80
2019-02-17T11:45:21.324Z,16.80
2019-02-17T11:47:49.029Z,17.00
2019-02-17T11:50:16.855Z,17.00
2019-02-17T11:52:44.698Z,17.50
2019-02-17T11:55:12.639Z,17.20
2019-02-17T11:57:40.515Z,17.20
2019-02-17T12:00:14.278Z,17.00
2019-02-17T12:02:42.104Z,16.90
2019-02-17T12:05:10.520Z,16.90
2019-02-17T12:07:49.092Z,16.60
2019-02-17T12:10:16.902Z,16.60
2019-02-17T12:12:44.686Z,16.40
2019-02-17T12:15:12.635Z,16.50
2019-02-17T12:17:40.407Z,16.40
2019-02-17T12:20:37.411Z,16.50
2019-02-17T12:23:12.069Z,16.40
2019-02-17T12:26:08.232Z,16.60
2019-02-17T12:29:06.274Z,16.60
2019-02-17T12:31:36.566Z,16.70
2019-02-17T12:34:04.302Z,16.90
2019-02-17T12:36:31.977Z,17.10
2019-02-17T12:38:59.754Z,17.10
2019-02-17T12:41:27.431Z,17.40
2019-02-17T12:43:55.268Z,17.50
2019-02-17T12:46:24.111Z,17.50
2019-02-17T12:48:53.167Z,17.50
2019-02-17T12:51:20.873Z,17.70
2019-02-17T12:53:48.591Z,17.80
2019-02-17T12:56:16.418Z,18.00
2019-02-17T12:58:44.307Z,18.00
2019-02-17T13:01:13.536Z,18.10
2019-02-17T13:03:41.588Z,18.10
2019-02-17T13:06:09.365Z,18.10
2019-02-17T13:08:37.071Z,18.10
2019-02-17T13:11:06.307Z,17.90
2019-02-17T13:13:34.063Z,18.00
2019-02-17T13:16:01.827Z,18.10
2019-02-17T13:18:29.605Z,18.00
2019-02-17T13:20:57.346Z,17.80
2019-02-17T13:23:25.129Z,17.60
2019-02-17T13:25:52.830Z,17.50
2019-02-17T13:28:20.582Z,17.50
2019-02-17T13:30:48.337Z,17.60
2019-02-17T13:33:16.040Z,17.60
2019-02-17T13:35:43.859Z,17.50
2019-02-17T13:38:11.591Z,17.70
2019-02-17T13:40:39.282Z,17.90
2019-02-17T13:43:07.116Z,18.20
2019-02-17T13:45:34.794Z,18.10
2019-02-17T13:48:02.608Z,18.20
2019-02-17T13:50:30.431Z,18.30
2019-02-17T13:52:58.221Z,18.60
2019-02-17T13:55:25.956Z,18.60
2019-02-17T13:57:53.648Z,18.70
2019-02-17T14:00:21.526Z,18.90
2019-02-17T14:02:49.329Z,19.00
2019-02-17T14:05:17.141Z,19.50
2019-02-17T14:07:44.924Z,20.10
2019-02-17T14:10:12.768Z,20.30
2019-02-17T14:12:40.593Z,20.70
2019-02-17T14:15:10.782Z,20.80
2019-02-17T14:17:38.562Z,21.00
2019-02-17T14:20:07.567Z,21.00
2019-02-17T14:22:35.373Z,21.20
2019-02-17T14:25:03.133Z,20.90
2019-02-17T14:27:30.824Z,21.20
2019-02-17T14:29:58.583Z,20.90
2019-02-17T14:32:26.353Z,20.70
2019-02-17T14:34:54.057Z,20.10
2019-02-17T14:37:21.868Z,19.90
2019-02-17T14:39:49.585Z,19.60
2019-02-17T14:42:17.317Z,19.40
2019-02-17T14:44:45.019Z,19.50
2019-02-17T14:47:12.770Z,19.10
2019-02-17T14:50:00.006Z,19.00
2019-02-17T14:52:28.815Z,18.70
2019-02-17T14:54:56.538Z,19.40
2019-02-17T14:57:24.278Z,19.30
2019-02-17T14:59:52.008Z,19.50
2019-02-17T15:02:19.806Z,19.60
2019-02-17T15:04:47.551Z,19.60
2019-02-17T15:07:15.276Z,19.50
2019-02-17T15:09:43.039Z,19.40
2019-02-17T15:12:10.780Z,19.70
2019-02-17T15:14:38.511Z,19.60
2019-02-17T15:17:07.316Z,19.50
2019-02-17T15:19:35.221Z,19.30
2019-02-17T15:22:02.946Z,19.20
2019-02-17T15:24:30.859Z,19.40
2019-02-17T15:26:59.524Z,19.50
2019-02-17T15:29:27.275Z,19.70
2019-02-17T15:31:55.024Z,19.60
2019-02-17T15:34:22.788Z,19.50
2019-02-17T15:36:50.471Z,19.30
2019-02-17T15:39:19.557Z,18.90
2019-02-17T15:41:48.168Z,18.50
2019-02-17T15:44:15.880Z,17.90
2019-02-17T15:46:43.644Z,17.50
2019-02-17T15:49:11.357Z,17.20
2019-02-17T15:51:41.199Z,17.00
2019-02-17T15:54:10.017Z,16.70
2019-02-17T15:56:38.469Z,16.40
2019-02-17T15:59:06.205Z,16.20
2019-02-17T16:01:34.061Z,16.00
2019-02-17T16:04:01.751Z,15.90
2019-02-17T16:06:30.837Z,15.70
2019-02-17T16:08:58.579Z,15.60
2019-02-17T16:11:26.390Z,15.40
2019-02-17T16:13:54.114Z,15.30
2019-02-17T16:16:21.840Z,15.10
2019-02-17T16:18:49.700Z,15.20
2019-02-17T16:21:17.504Z,15.10
2019-02-17T16:23:45.218Z,15.00
2019-02-17T16:26:13.943Z,14.90
2019-02-17T16:28:41.827Z,14.80
2019-02-17T16:31:09.599Z,14.70
2019-02-17T16:33:37.379Z,14.60
2019-02-17T16:36:05.118Z,14.50
2019-02-17T16:38:32.974Z,14.40
2019-02-17T16:41:00.692Z,14.30
2019-02-17T16:43:30.213Z,14.30
2019-02-17T16:45:57.975Z,14.00
2019-02-17T16:48:25.691Z,14.00
2019-02-17T16:50:53.482Z,13.90
2019-02-17T16:53:21.319Z,13.80
2019-02-17T16:55:49.456Z,13.60
2019-02-17T16:58:17.204Z,13.50
2019-02-17T17:00:44.940Z,13.50
2019-02-17T17:03:12.684Z,13.40
2019-02-17T17:05:40.378Z,13.40
2019-02-17T17:08:08.918Z,13.40
2019-02-17T17:10:36.675Z,13.30
2019-02-17T17:13:04.454Z,13.30
2019-02-17T17:15:32.724Z,13.30
2019-02-17T17:18:00.470Z,13.30
2019-02-17T17:20:28.326Z,13.20
2019-02-17T17:22:56.280Z,13.20
2019-02-17T17:25:24.027Z,13.10
2019-02-17T17:27:51.806Z,13.00
2019-02-17T17:30:19.743Z,13.00
2019-02-17T17:32:47.485Z,12.90
2019-02-17T17:35:15.156Z,12.80
2019-02-17T17:37:43.382Z,12.70
2019-02-17T17:40:11.189Z,12.60
2019-02-17T17:42:38.937Z,12.50
2019-02-17T17:45:09.127Z,12.40
2019-02-17T17:47:36.855Z,12.40
2019-02-17T17:50:05.670Z,12.30
2019-02-17T17:52:36.753Z,12.20
2019-02-17T17:55:04.911Z,12.10
2019-02-17T17:57:32.691Z,12.00
2019-02-17T18:00:00.383Z,12.00
2019-02-17T18:02:28.155Z,11.90
2019-02-17T18:04:55.974Z,12.00
2019-02-17T18:07:23.766Z,12.00
2019-02-17T18:09:51.504Z,11.90
2019-02-17T18:12:19.285Z,11.80
2019-02-17T18:14:47.143Z,11.80
2019-02-17T18:17:15.024Z,11.80
2019-02-17T18:19:43.623Z,11.70
2019-02-17T18:22:11.247Z,11.70
2019-02-17T18:24:39.007Z,11.80
2019-02-17T18:27:06.828Z,11.80
2019-02-17T18:29:41.424Z,11.80
2019-02-17T18:32:09.186Z,11.80
2019-02-17T18:34:36.877Z,11.70
2019-02-17T18:37:05.812Z,11.80
2019-02-17T18:39:33.569Z,11.70
2019-02-17T18:42:01.333Z,11.70
2019-02-17T18:44:29.150Z,11.70
2019-02-17T18:46:56.951Z,11.70
2019-02-17T18:49:24.754Z,11.70
2019-02-17T18:51:52.537Z,11.60
2019-02-17T18:54:20.293Z,11.60
2019-02-17T18:56:48.060Z,11.60
2019-02-17T18:59:15.836Z,11.50
2019-02-17T19:01:43.599Z,11.50
2019-02-17T19:04:11.386Z,11.50
2019-02-17T19:06:40.278Z,8.90
2019-02-17T19:09:08.195Z,11.40
2019-02-17T19:11:36.059Z,11.30
2019-02-17T19:14:03.786Z,11.30
2019-02-17T19:16:31.486Z,11.30
2019-02-17T19:18:59.321Z,11.20
2019-02-17T19:21:27.456Z,11.10
2019-02-17T19:23:55.312Z,11.00
2019-02-17T19:26:23.036Z,11.00
2019-02-17T19:28:50.774Z,11.00
2019-02-17T19:31:19.928Z,10.90
2019-02-17T19:33:47.723Z,10.90
2019-02-17T19:36:15.541Z,10.90
2019-02-17T19:38:43.289Z,10.90
2019-02-17T19:41:10.976Z,10.80
2019-02-17T19:43:38.751Z,10.80
2019-02-17T19:46:06.463Z,9.40
2019-02-17T19:48:34.158Z,10.70
2019-02-17T19:51:03.052Z,10.70
2019-02-17T19:53:30.785Z,10.60
2019-02-17T19:55:58.575Z,10.60
2019-02-17T19:58:26.427Z,10.50
2019-02-17T20:00:54.302Z,10.50
2019-02-17T20:03:50.913Z,10.50
2019-02-17T20:06:20.828Z,10.50
2019-02-17T20:08:48.552Z,10.40
2019-02-17T20:11:16.442Z,10.30
2019-02-17T20:13:44.414Z,10.40
2019-02-17T20:16:14.378Z,10.40
2019-02-17T20:18:42.117Z,10.30
2019-02-17T20:21:10.639Z,10.30
2019-02-17T20:23:38.367Z,10.30
2019-02-17T20:26:06.155Z,10.20
2019-02-17T20:28:43.129Z,10.20
2019-02-17T20:31:03.511Z,10.10
2019-02-17T20:33:31.252Z,10.10
2019-02-17T20:36:02.735Z,10.00
2019-02-17T20:38:28.522Z,10.00
2019-02-17T20:40:56.207Z,9.80
2019-02-17T20:43:23.953Z,9.90
2019-02-17T20:45:51.764Z,9.70
2019-02-17T20:48:19.457Z,9.60
2019-02-17T20:50:47.159Z,9.60
2019-02-17T20:53:14.887Z,9.60
2019-02-17T20:55:42.657Z,9.60
2019-02-17T20:58:13.531Z,9.60
2019-02-17T21:00:41.411Z,9.50
2019-02-17T21:03:09.134Z,9.50
2019-02-17T21:05:36.975Z,9.50
2019-02-17T21:08:04.770Z,9.40
2019-02-17T21:10:32.728Z,9.40
2019-02-17T21:13:00.541Z,9.40
2019-02-17T21:15:28.266Z,9.40
2019-02-17T21:17:56.029Z,9.30
2019-02-17T21:20:24.096Z,9.20
2019-02-17T21:22:53.085Z,9.10
2019-02-17T21:25:20.955Z,9.00
2019-02-17T21:27:48.696Z,9.00
2019-02-17T21:30:16.680Z,8.90
2019-02-17T21:32:44.454Z,8.90
2019-02-17T21:35:12.361Z,8.80
2019-02-17T21:37:41.123Z,8.80
2019-02-17T21:40:11.717Z,8.70
2019-02-17T21:42:39.533Z,8.60
2019-02-17T21:45:09.047Z,8.60
2019-02-17T21:47:38.999Z,8.60
2019-02-17T21:50:07.387Z,8.60
2019-02-17T21:52:35.117Z,8.60
2019-02-17T21:55:03.085Z,8.50
2019-02-17T21:57:30.870Z,8.50
2019-02-17T21:59:58.597Z,8.40
2019-02-17T22:02:26.343Z,8.40
2019-02-17T22:04:54.052Z,8.30
2019-02-17T22:07:21.868Z,8.20
2019-02-17T22:09:49.601Z,8.10
2019-02-17T22:12:17.345Z,8.10
2019-02-17T22:14:45.870Z,8.10
2019-02-17T22:17:13.615Z,8.10
2019-02-17T22:19:41.323Z,8.10
2019-02-17T22:22:09.119Z,8.10
2019-02-17T22:24:36.889Z,8.10
2019-02-17T22:27:04.633Z,8.00
2019-02-17T22:29:34.152Z,8.00
2019-02-17T22:32:01.900Z,8.00
2019-02-17T22:34:29.587Z,8.00
2019-02-17T22:36:57.293Z,8.00
2019-02-17T22:39:25.036Z,8.00
2019-02-17T22:41:52.838Z,7.90
2019-02-17T22:44:20.609Z,7.90
2019-02-17T22:46:48.332Z,7.80
2019-02-17T22:49:16.015Z,7.70
2019-02-17T22:51:43.725Z,7.70
2019-02-17T22:54:11.415Z,7.60
2019-02-17T22:56:39.222Z,7.50
2019-02-17T22:59:06.992Z,7.50
2019-02-17T23:01:35.152Z,7.50
2019-02-17T23:04:02.824Z,7.60
2019-02-17T23:06:30.576Z,7.50
2019-02-17T23:08:58.391Z,7.40
2019-02-17T23:11:26.150Z,7.40
2019-02-17T23:13:53.914Z,7.40
2019-02-17T23:16:21.671Z,7.40
2019-02-17T23:18:49.392Z,7.40
2019-02-17T23:21:17.149Z,7.30
2019-02-17T23:23:44.868Z,7.30
2019-02-17T23:26:12.599Z,7.20
2019-02-17T23:28:40.329Z,7.30
2019-02-17T23:31:08.052Z,7.20
2019-02-17T23:33:35.780Z,7.30
2019-02-17T23:36:03.450Z,7.20
2019-02-17T23:38:31.166Z,7.20
2019-02-17T23:40:59.945Z,7.20
2019-02-17T23:43:27.688Z,7.20
2019-02-17T23:45:55.423Z,7.30
2019-02-17T23:48:23.191Z,7.20
2019-02-17T23:50:50.854Z,7.20
2019-02-17T23:53:18.588Z,7.20
2019-02-17T23:55:46.315Z,7.10
2019-02-17T23:58:14.054Z,7.10
